Time;durP1;ratioP1;P1;durP2;ratioP2;P2;SDS_P1;SDS_P2;PMS_P1;PMS_P2;Temp;Humidity;BMP_temperature;BMP_pressure;BME280_temperature;BME280_humidity;BME280_pressure;Samples;Min_cycle;Max_cycle;Signal;HPM_P1;HPM_P2
2022/07/26 00:00:45;;;;;;;7.58;3.15;;;;;;;22.79;43.26;99373.16;2070614;85;31210;-65
2022/07/26 00:03:49;;;;;;;7.35;3.17;;;;;;;22.78;43.41;99365.99;2070542;85;34136;-65
2022/07/26 00:06:50;;;;;;;6.43;3.03;;;;;;;22.76;43.47;99364.81;2070807;86;29627;-65
2022/07/26 00:09:51;;;;;;;4.20;2.98;;;;;;;22.75;43.53;99369.41;2070627;85;27977;-65
2022/07/26 00:12:52;;;;;;;12.45;3.35;;;;;;;22.75;43.67;99377.61;2070643;86;28868;-65
2022/07/26 00:15:54;;;;;;;7.58;3.12;;;;;;;22.74;43.83;99375.94;2070514;85;31168;-66
2022/07/26 00:18:56;;;;;;;6.83;3.25;;;;;;;22.72;43.82;99373.89;2060769;86;33927;-67
2022/07/26 00:25:17;;;;;;;11.63;3.75;;;;;;;22.72;44.04;99367.56;2081890;85;27692;-65
2022/07/26 00:28:19;;;;;;;7.67;3.25;;;;;;;22.69;44.25;99361.95;2026782;87;30047;-65
2022/07/26 00:31:20;;;;;;;7.85;3.47;;;;;;;22.68;44.47;99357.52;2081601;85;32390;-65
2022/07/26 00:34:21;;;;;;;6.83;3.47;;;;;;;22.66;44.44;99346.45;2027214;87;34074;-65
2022/07/26 00:37:23;;;;;;;8.85;3.37;;;;;;;22.65;44.46;99342.86;2082001;85;30053;-65
2022/07/26 00:40:25;;;;;;;8.90;3.58;;;;;;;22.65;44.56;99336.56;2082403;85;27599;-65
2022/07/26 00:43:26;;;;;;;10.00;3.77;;;;;;;22.63;44.81;99329.90;2061266;86;28453;-66
2022/07/26 00:46:28;;;;;;;5.72;3.42;;;;;;;22.60;44.86;99327.02;2082689;85;31525;-65
2022/07/26 00:49:29;;;;;;;7.45;4.15;;;;;;;22.57;44.97;99325.17;2060917;86;34199;-65
2022/07/26 00:52:30;;;;;;;4.12;3.02;;;;;;;22.54;45.15;99327.72;2046582;86;30093;-65
2022/07/26 00:55:32;;;;;;;5.95;3.75;;;;;;;22.53;45.14;99326.55;2082089;85;27917;-65
2022/07/26 00:58:33;;;;;;;3.62;3.05;;;;;;;22.52;45.20;99327.58;2027599;87;29238;-65
2022/07/26 01:01:34;;;;;;;5.15;3.67;;;;;;;22.50;45.31;99326.90;2082388;85;30851;-66
2022/07/26 01:04:35;;;;;;;5.50;3.90;;;;;;;22.46;45.40;99327.78;2082283;85;32997;-66
2022/07/26 01:07:38;;;;;;;7.40;3.83;;;;;;;22.44;45.55;99325.73;2028056;87;29986;-67
2022/07/26 01:10:39;;;;;;;8.58;3.75;;;;;;;22.40;45.65;99332.04;2082324;85;27640;-66
2022/07/26 01:13:47;;;;;;;4.62;3.22;;;;;;;22.37;45.75;99335.12;2082414;85;28632;-67
2022/07/26 01:16:50;;;;;;;8.35;3.47;;;;;;;22.34;46.02;99341.45;2028085;86;30931;-67
2022/07/26 01:19:51;;;;;;;7.92;3.90;;;;;;;22.28;46.12;99334.30;2085553;85;33214;-66
2022/07/26 01:22:53;;;;;;;4.92;3.55;;;;;;;22.25;46.30;99328.35;2085225;85;29760;-67
2022/07/26 01:25:54;;;;;;;8.33;3.90;;;;;;;22.21;46.29;99333.81;2085652;85;27702;-67
2022/07/26 01:28:55;;;;;;;10.63;4.00;;;;;;;22.18;46.45;99330.06;2070742;86;28644;-67
2022/07/26 01:31:57;;;;;;;3.72;3.42;;;;;;;22.14;46.60;99331.78;2070794;85;31002;-67
2022/07/26 01:34:58;;;;;;;4.30;3.40;;;;;;;22.13;46.77;99333.33;2070766;86;32916;-67
2022/07/26 01:37:59;;;;;;;5.20;3.62;;;;;;;22.11;46.97;99326.67;2070757;86;30492;-66
2022/07/26 01:41:00;;;;;;;10.15;3.50;;;;;;;22.11;47.03;99338.11;2070710;86;27594;-67
2022/07/26 01:44:02;;;;;;;6.03;3.35;;;;;;;22.10;47.30;99345.95;2070691;85;28753;-66
2022/07/26 01:47:03;;;;;;;5.42;3.85;;;;;;;22.08;47.40;99333.86;2070601;86;31021;-66
2022/07/26 01:50:06;;;;;;;5.53;4.00;;;;;;;22.06;47.66;99338.64;2070248;86;33023;-66
2022/07/26 01:53:08;;;;;;;5.35;3.67;;;;;;;22.05;47.82;99331.48;2045742;86;29651;-66
2022/07/26 01:56:09;;;;;;;6.90;3.70;;;;;;;22.03;48.03;99328.07;2085488;85;27723;-66
2022/07/26 01:59:10;;;;;;;5.55;3.83;;;;;;;22.01;47.98;99333.69;2085296;85;28677;-66
2022/07/26 02:02:12;;;;;;;6.65;3.90;;;;;;;22.02;48.21;99327.73;2030578;87;31844;-66
2022/07/26 02:05:13;;;;;;;6.15;3.50;;;;;;;22.01;48.30;99334.21;2085261;85;32939;-66
2022/07/26 02:08:14;;;;;;;7.08;4.00;;;;;;;22.01;48.46;99345.95;2030524;86;29218;-66
2022/07/26 02:11:17;;;;;;;9.75;4.17;;;;;;;22.01;48.64;99360.95;2085478;85;27541;-66
2022/07/26 02:14:18;;;;;;;5.67;3.62;;;;;;;22.00;48.70;99351.10;2030722;87;28831;-66
2022/07/26 02:17:19;;;;;;;9.95;3.70;;;;;;;21.99;48.84;99353.48;2084624;85;31025;-66
2022/07/26 02:20:21;;;;;;;6.00;3.42;;;;;;;22.01;49.02;99354.66;2027353;87;33830;-66
2022/07/26 02:23:23;;;;;;;5.72;3.42;;;;;;;21.99;48.91;99373.94;2082044;85;29744;-66
2022/07/26 02:26:25;;;;;;;9.38;4.10;;;;;;;21.98;49.06;99377.69;2082152;85;27731;-65
2022/07/26 02:29:27;;;;;;;9.83;4.00;;;;;;;21.97;49.25;99373.27;2061050;86;28644;-64
2022/07/26 02:32:29;;;;;;;5.12;3.50;;;;;;;21.97;49.62;99380.58;2081876;85;31298;-65
2022/07/26 02:35:30;;;;;;;6.40;4.55;;;;;;;21.97;50.20;99387.39;2060837;86;33412;-64
2022/07/26 02:38:32;;;;;;;8.10;3.70;;;;;;;21.95;50.66;99393.03;2082239;85;29386;-64
2022/07/26 02:41:33;;;;;;;7.80;3.90;;;;;;;21.94;51.00;99389.97;2061246;86;27704;-64
2022/07/26 02:44:38;;;;;;;5.55;4.35;;;;;;;21.90;51.70;99387.77;2060856;86;29933;-64
2022/07/26 02:47:48;;;;;;;10.30;4.47;;;;;;;21.78;52.58;99389.45;2061019;86;30455;-64
2022/07/26 02:50:49;;;;;;;7.80;4.62;;;;;;;21.80;53.01;99399.69;2061081;86;33005;-65
2022/07/26 02:53:56;;;;;;;8.33;4.58;;;;;;;21.71;53.02;99403.45;2028844;86;30476;-64
2022/07/26 02:56:55;;;;;;;8.30;4.50;;;;;;;21.63;53.83;99450.64;2081163;85;27695;-64
2022/07/26 02:59:57;;;;;;;7.87;4.25;;;;;;;21.56;54.51;99487.73;2027273;87;29086;-66
2022/07/26 03:02:59;;;;;;;4.75;1.77;;;;;;;21.47;54.98;99499.64;2081769;85;32278;-68
2022/07/26 03:06:00;;;;;;;7.95;5.45;;;;;;;21.38;55.06;99507.78;2027187;87;32986;-64
2022/07/26 03:09:03;;;;;;;8.58;5.50;;;;;;;21.32;56.42;99478.50;2082281;85;29685;-65
2022/07/26 03:12:05;;;;;;;8.53;6.47;;;;;;;21.21;56.42;99489.19;2027437;87;27642;-65
2022/07/26 03:15:08;;;;;;;12.93;6.85;;;;;;;21.14;56.47;99481.32;2082174;85;29998;-65
2022/07/26 03:18:09;;;;;;;11.68;6.50;;;;;;;21.08;56.73;99482.84;2028324;87;30674;-64
2022/07/26 03:21:11;;;;;;;12.82;6.80;;;;;;;21.03;56.56;99491.16;2085317;85;34130;-65
2022/07/26 03:24:12;;;;;;;11.33;7.37;;;;;;;20.98;56.71;99496.23;2085373;85;30367;-64
2022/07/26 03:27:14;;;;;;;10.72;8.08;;;;;;;20.96;56.93;99499.14;2070455;86;27730;-64
2022/07/26 03:30:16;;;;;;;9.10;7.70;;;;;;;20.93;57.03;99507.63;2070280;86;28847;-65
2022/07/26 03:33:17;;;;;;;11.48;6.90;;;;;;;20.89;57.35;99507.60;2047168;86;31153;-62
2022/07/26 03:36:21;;;;;;;10.95;7.70;;;;;;;20.87;57.42;99508.27;2070442;86;33301;-63
2022/07/26 03:39:24;;;;;;;;;;;;;;;20.84;57.67;99513.54;2072805;86;29758;-63
2022/07/26 03:42:25;;;;;;;13.58;7.47;;;;;;;20.82;58.03;99515.56;2070652;86;28161;-63
2022/07/26 03:45:28;;;;;;;10.28;7.70;;;;;;;20.75;58.07;99516.72;2070696;86;28690;-63
2022/07/26 03:48:30;;;;;;;9.60;8.13;;;;;;;20.71;58.20;99522.63;2070693;86;31401;-64
2022/07/26 03:51:32;;;;;;;12.13;8.25;;;;;;;20.70;58.47;99525.00;2064908;85;33395;-63
2022/07/26 03:54:34;;;;;;;11.85;8.48;;;;;;;20.69;58.76;99530.09;2070400;86;30020;-63
2022/07/26 03:57:35;;;;;;;13.43;8.70;;;;;;;20.67;58.89;99537.56;2070552;86;27680;-63
2022/07/26 04:00:36;;;;;;;11.63;9.53;;;;;;;20.65;59.29;99553.55;2070626;85;29034;-64
2022/07/26 04:03:38;;;;;;;19.10;9.85;;;;;;;20.67;59.57;99555.26;2070849;86;32218;-63
2022/07/26 04:06:40;;;;;;;16.80;10.72;;;;;;;20.67;59.68;99563.42;2070611;86;34093;-62
2022/07/26 04:09:41;;;;;;;16.17;11.57;;;;;;;20.71;60.20;99575.18;2070451;86;29552;-62
2022/07/26 04:12:42;;;;;;;16.52;11.28;;;;;;;20.76;60.34;99585.12;2082239;85;27687;-63
2022/07/26 04:15:44;;;;;;;15.68;11.45;;;;;;;20.82;60.62;99584.98;2086060;85;29416;-65
2022/07/26 04:18:45;;;;;;;13.65;11.93;;;;;;;20.88;60.90;99579.41;2085632;85;31350;-62
2022/07/26 04:21:47;;;;;;;16.17;11.97;;;;;;;20.95;61.27;99581.31;2085495;85;34161;-63
2022/07/26 04:24:48;;;;;;;15.18;12.13;;;;;;;20.98;61.35;99582.88;2049824;86;29500;-63
2022/07/26 04:27:50;;;;;;;14.33;12.75;;;;;;;21.06;61.77;99584.27;2049925;86;27716;-63
2022/07/26 04:30:52;;;;;;;15.63;12.50;;;;;;;21.12;61.78;99587.38;2049522;86;28721;-63
2022/07/26 04:33:53;;;;;;;15.63;13.75;;;;;;;21.17;62.09;99589.11;2049784;86;31087;-64
2022/07/26 04:36:55;;;;;;;14.38;12.47;;;;;;;21.22;62.22;99598.98;2049809;86;34112;-63
2022/07/26 04:39:57;;;;;;;16.15;13.90;;;;;;;21.29;62.49;99597.83;2049367;86;30699;-64
2022/07/26 04:43:01;;;;;;;18.52;13.32;;;;;;;21.33;62.66;99604.17;2048260;85;28055;-64
2022/07/26 04:46:03;;;;;;;14.83;13.22;;;;;;;21.36;62.88;99620.69;2035170;87;29368;-64
2022/07/26 04:49:05;;;;;;;14.53;13.03;;;;;;;21.39;62.92;99616.28;2065149;86;31431;-64
2022/07/26 04:52:06;;;;;;;15.08;12.43;;;;;;;21.42;63.20;99612.36;2083720;84;33504;-65
2022/07/26 04:55:09;;;;;;;15.80;13.30;;;;;;;21.44;63.28;99622.59;2047778;87;30416;-64
2022/07/26 04:58:11;;;;;;;13.90;12.50;;;;;;;21.47;63.49;99619.02;2083948;85;27712;-64
2022/07/26 05:01:12;;;;;;;15.48;11.93;;;;;;;21.49;63.50;99615.63;2048153;86;29031;-64
2022/07/26 05:04:14;;;;;;;12.65;11.05;;;;;;;21.53;63.56;99633.86;2083994;85;31457;-64
2022/07/26 05:07:16;;;;;;;14.50;11.15;;;;;;;21.58;63.76;99642.94;2047604;87;34209;-65
2022/07/26 05:10:20;;;;;;;14.40;9.85;;;;;;;21.62;63.78;99649.28;2084163;85;29703;-65
2022/07/26 05:13:21;;;;;;;10.05;8.68;;;;;;;21.65;63.63;99654.91;2085836;85;27700;-66
2022/07/26 05:16:23;;;;;;;9.80;8.48;;;;;;;21.70;63.58;99666.18;2070572;86;29555;-65
2022/07/26 05:19:25;;;;;;;8.53;7.45;;;;;;;21.76;63.32;99660.05;2064802;84;32238;-65
2022/07/26 05:22:26;;;;;;;8.70;7.08;;;;;;;21.86;63.18;99665.37;2050303;86;33592;-65
2022/07/26 05:25:28;;;;;;;10.72;7.40;;;;;;;22.01;63.10;99674.62;2081915;85;30265;-64
2022/07/26 05:28:31;;;;;;;8.88;7.25;;;;;;;22.23;63.01;99670.92;2087081;84;27691;-64
2022/07/26 05:31:33;;;;;;;8.78;6.45;;;;;;;22.51;62.86;99664.34;2098131;84;29443;-64
2022/07/26 05:34:35;;;;;;;9.90;5.95;;;;;;;22.74;62.23;99669.97;2102488;84;32208;-64
2022/07/26 05:37:37;;;;;;;9.60;6.00;;;;;;;22.99;62.00;99669.44;2098466;84;34436;-64
2022/07/26 05:40:38;;;;;;;5.72;5.22;;;;;;;23.20;61.31;99681.70;2102522;84;30325;-64
2022/07/26 05:43:41;;;;;;;5.30;4.80;;;;;;;23.31;60.74;99694.19;2098718;84;27693;-64
2022/07/26 05:46:43;;;;;;;8.03;4.72;;;;;;;23.39;60.21;99691.95;2102288;84;29964;-64
2022/07/26 05:49:45;;;;;;;8.28;4.65;;;;;;;23.40;59.61;99685.45;2098596;84;31413;-64
2022/07/26 05:52:46;;;;;;;6.95;4.60;;;;;;;23.34;59.27;99689.22;2094275;83;32866;-64
2022/07/26 05:55:48;;;;;;;5.67;4.28;;;;;;;23.28;59.00;99692.64;2061033;86;30356;-64
2022/07/26 05:58:51;;;;;;;5.25;4.75;;;;;;;23.18;58.76;99695.53;2061187;86;27701;-63
2022/07/26 06:01:56;;;;;;;4.58;4.12;;;;;;;23.13;58.79;99695.22;2081947;85;29417;-64
2022/07/26 06:04:59;;;;;;;7.60;4.42;;;;;;;23.05;58.70;99708.88;2060821;86;33170;-65
2022/07/26 06:08:01;;;;;;;4.72;4.33;;;;;;;23.02;58.74;99719.64;2060689;86;33872;-63
2022/07/26 06:11:06;;;;;;;6.97;4.50;;;;;;;23.03;58.91;99721.84;2048822;86;29685;-65
2022/07/26 06:14:08;;;;;;;7.87;4.20;;;;;;;23.04;58.63;99729.02;2080412;85;27872;-64
2022/07/26 06:17:10;;;;;;;4.60;4.17;;;;;;;23.05;58.70;99735.70;2080507;85;29207;-64
2022/07/26 06:20:11;;;;;;;7.90;5.03;;;;;;;23.05;58.60;99746.62;2079928;84;31768;-64
2022/07/26 06:23:14;;;;;;;7.25;4.92;;;;;;;23.03;58.63;99754.13;2080870;85;34308;-65
2022/07/26 06:26:16;;;;;;;9.13;5.12;;;;;;;22.99;58.77;99752.77;2026859;87;29694;-63
2022/07/26 06:29:18;;;;;;;6.15;4.20;;;;;;;22.92;58.61;99764.02;2082274;85;28061;-64
2022/07/26 06:32:20;;;;;;;6.22;5.10;;;;;;;22.86;58.72;99764.19;2081839;85;29431;-65
2022/07/26 06:35:22;;;;;;;6.85;4.33;;;;;;;22.80;58.56;99768.98;2061214;86;30331;-64
2022/07/26 06:38:25;;;;;;;5.15;4.15;;;;;;;22.78;58.54;99771.52;2081610;85;33012;-64
2022/07/26 06:41:27;;;;;;;5.17;4.67;;;;;;;22.79;58.57;99769.13;2060693;86;29688;-64
2022/07/26 06:44:29;;;;;;;6.28;4.58;;;;;;;22.79;58.45;99772.73;2081877;85;27719;-65
2022/07/26 06:47:30;;;;;;;6.62;4.95;;;;;;;22.80;58.54;99771.71;2060774;86;29941;-66
2022/07/26 06:50:33;;;;;;;10.32;4.95;;;;;;;22.80;58.36;99775.81;2060707;86;31511;-64
2022/07/26 06:53:35;;;;;;;5.00;4.45;;;;;;;22.82;58.45;99784.69;2039474;86;34143;-64
2022/07/26 06:56:36;;;;;;;8.20;4.70;;;;;;;22.86;58.32;99787.93;2082193;85;29981;-64
2022/07/26 06:59:38;;;;;;;7.75;4.42;;;;;;;22.89;58.20;99787.07;2082361;85;27603;-64
2022/07/26 07:02:39;;;;;;;4.30;3.90;;;;;;;22.91;58.06;99791.86;2026910;87;29926;-63
2022/07/26 07:05:41;;;;;;;6.60;4.62;;;;;;;22.93;57.86;99793.56;2081103;85;32460;-66
2022/07/26 07:08:43;;;;;;;11.55;4.20;;;;;;;22.90;57.62;99787.94;2060649;86;33976;-64
2022/07/26 07:11:44;;;;;;;8.45;4.05;;;;;;;22.90;57.62;99790.67;2059893;86;30025;-65
2022/07/26 07:14:46;;;;;;;4.95;4.03;;;;;;;22.90;57.61;99799.70;2060666;86;27727;-65
2022/07/26 07:17:50;;;;;;;5.83;4.08;;;;;;;22.95;57.60;99812.02;2053897;85;29373;-63
2022/07/26 07:20:52;;;;;;;5.55;4.20;;;;;;;23.02;57.67;99814.39;2061392;85;31060;-64
2022/07/26 07:23:53;;;;;;;6.65;4.47;;;;;;;23.14;57.40;99813.05;2063283;86;33946;-65
2022/07/26 07:26:55;;;;;;;8.20;4.15;;;;;;;23.23;57.36;99815.31;2062852;86;30571;-66
2022/07/26 07:30:00;;;;;;;9.18;4.83;;;;;;;23.35;57.38;99822.13;2063803;86;27621;-66
2022/07/26 07:33:02;;;;;;;6.20;4.47;;;;;;;23.45;57.30;99839.73;2084781;85;29490;-65
2022/07/26 07:36:04;;;;;;;7.70;4.60;;;;;;;23.58;57.22;99848.75;2046843;86;31766;-65
2022/07/26 07:39:05;;;;;;;7.40;4.87;;;;;;;23.64;57.28;99843.97;2064862;85;33339;-65
2022/07/26 07:42:07;;;;;;;4.55;3.80;;;;;;;23.79;57.20;99844.13;2083551;85;29636;-64
2022/07/26 07:45:10;;;;;;;7.67;4.03;;;;;;;23.91;56.94;99841.02;2083439;85;27676;-62
2022/07/26 07:48:12;;;;;;;4.95;3.72;;;;;;;24.05;56.77;99840.33;2083121;84;29569;-63
2022/07/26 07:51:14;;;;;;;8.55;4.47;;;;;;;24.21;56.52;99839.43;2066138;85;31153;-64
2022/07/26 07:54:17;;;;;;;6.78;3.98;;;;;;;24.35;56.20;99845.19;2065352;86;34116;-65
2022/07/26 07:57:20;;;;;;;6.92;3.42;;;;;;;24.51;56.11;99848.35;2084931;85;30579;-65
2022/07/26 08:00:22;;;;;;;5.17;3.40;;;;;;;24.75;55.86;99849.30;2056274;86;27753;-64
2022/07/26 08:03:23;;;;;;;4.62;3.05;;;;;;;24.99;55.31;99855.14;2070584;86;29117;-64
2022/07/26 08:06:25;;;;;;;8.53;3.37;;;;;;;25.16;54.79;99854.49;2055412;86;31800;-64
2022/07/26 08:09:27;;;;;;;6.22;3.00;;;;;;;25.36;54.22;99857.62;2083502;85;33002;-65
2022/07/26 08:12:29;;;;;;;5.03;3.40;;;;;;;25.53;53.94;99866.57;2083319;85;29628;-64
2022/07/26 08:15:31;;;;;;;3.52;2.72;;;;;;;25.68;53.33;99865.25;2083004;85;27637;-64
2022/07/26 08:18:33;;;;;;;5.22;3.20;;;;;;;25.85;52.90;99864.55;2070322;85;29576;-65
2022/07/26 08:21:34;;;;;;;4.65;3.58;;;;;;;26.03;52.67;99862.84;2060385;86;31188;-63
2022/07/26 08:24:39;;;;;;;4.95;3.62;;;;;;;26.18;52.06;99862.02;2058581;85;57200;-63
2022/07/26 08:27:42;;;;;;;6.97;3.85;;;;;;;26.23;51.64;99870.02;2081851;85;30644;-63
2022/07/26 08:30:47;;;;;;;8.83;3.62;;;;;;;26.33;51.20;99870.23;2060678;86;27713;-63
2022/07/26 08:33:51;;;;;;;;;;;;;;;26.36;50.88;99873.48;2062045;86;28654;-63
2022/07/26 08:36:56;;;;;;;8.40;4.47;;;;;;;26.42;50.67;99866.86;2064456;85;31522;-64
2022/07/26 08:40:00;;;;;;;7.05;3.33;;;;;;;26.50;50.58;99874.48;2080073;85;33625;-65
2022/07/26 08:43:03;;;;;;;10.03;3.47;;;;;;;26.58;50.29;99883.14;2080371;85;30508;-65
2022/07/26 08:46:06;;;;;;;2.47;2.27;;;;;;;26.66;50.15;99877.55;2080082;85;27863;-66
2022/07/26 08:49:10;;;;;;;6.20;3.37;;;;;;;26.82;50.09;99879.23;2080109;85;29377;-64
2022/07/26 08:52:13;;;;;;;6.62;3.22;;;;;;;26.90;49.46;99882.93;2080506;85;31193;-63
2022/07/26 08:55:19;;;;;;;4.08;2.60;;;;;;;26.98;49.00;99885.55;2081953;85;33761;-65
2022/07/26 08:58:20;;;;;;;5.00;3.02;;;;;;;27.01;49.22;99884.33;2011983;87;30025;-63
2022/07/26 09:01:21;;;;;;;6.20;3.25;;;;;;;27.06;48.75;99894.20;2082487;85;27647;-63
2022/07/26 09:04:37;;;;;;;8.20;2.72;;;;;;;27.08;48.59;99886.61;2082166;85;29801;-66
2022/07/26 09:07:38;;;;;;;4.80;2.72;;;;;;;27.05;48.36;99887.02;2061694;85;31379;-66
2022/07/26 09:10:40;;;;;;;5.97;3.50;;;;;;;27.06;48.14;99888.70;2081787;85;33959;-63
2022/07/26 09:13:58;;;;;;;5.53;2.90;;;;;;;27.08;47.62;99904.48;2061423;86;29638;-63
2022/07/26 09:17:00;;;;;;;3.83;2.67;;;;;;;27.08;47.98;99897.61;2061288;86;27720;-63
2022/07/26 09:20:09;;;;;;;6.22;3.35;;;;;;;27.17;47.78;99903.84;2060322;85;28672;-64
2022/07/26 09:23:11;;;;;;;8.13;3.33;;;;;;;27.22;47.60;99902.20;2069572;85;31814;-63
2022/07/26 09:26:12;;;;;;;3.08;2.60;;;;;;;27.29;47.42;99900.38;2081798;85;35213;-62
2022/07/26 09:29:13;;;;;;;5.22;2.95;;;;;;;27.41;47.17;99905.35;2082167;85;30599;-63
2022/07/26 09:32:26;;;;;;;6.28;3.10;;;;;;;27.46;46.84;99897.94;2027382;87;27670;-63
2022/07/26 09:35:31;;;;;;;5.47;2.60;;;;;;;27.51;46.68;99903.17;2082030;85;29113;-63
2022/07/26 09:38:51;;;;;;;3.62;2.50;;;;;;;27.52;46.48;99899.38;2081850;85;31295;-63
2022/07/26 09:41:53;;;;;;;4.20;2.75;;;;;;;27.64;46.45;99904.34;2082188;85;32958;-63
2022/07/26 09:44:56;;;;;;;3.72;1.95;;;;;;;27.72;45.89;99902.30;2058673;85;30919;-63
2022/07/26 09:47:59;;;;;;;5.55;2.55;;;;;;;27.75;45.64;99905.16;2027575;87;28166;-63
2022/07/26 09:51:00;;;;;;;4.87;2.50;;;;;;;27.81;45.32;99904.38;2082400;85;28681;-63
2022/07/26 09:54:02;;;;;;;2.47;1.40;;;;;;;27.74;44.76;99907.59;2081992;85;31053;-63
2022/07/26 09:57:04;;;;;;;3.65;2.40;;;;;;;27.72;44.96;99908.30;2060878;86;34194;-63
2022/07/26 10:00:08;;;;;;;2.67;1.50;;;;;;;27.74;44.50;99918.59;2061077;86;30016;-63
2022/07/26 10:03:10;;;;;;;6.65;2.70;;;;;;;27.78;44.61;99924.03;2061115;86;28122;-63
2022/07/26 10:06:11;;;;;;;5.08;2.72;;;;;;;27.81;43.86;99929.66;2061111;86;28669;-62
2022/07/26 10:09:14;;;;;;;5.58;1.77;;;;;;;27.77;43.51;99930.59;2061192;86;31389;-62
2022/07/26 10:12:16;;;;;;;6.30;2.52;;;;;;;27.77;43.29;99925.63;2082024;85;33762;-62
2022/07/26 10:15:43;;;;;;;4.87;2.27;;;;;;;27.82;43.27;99933.61;2060817;86;30597;-63
2022/07/26 10:18:46;;;;;;;4.65;2.30;;;;;;;27.83;42.91;99935.31;2081522;85;27662;-64
2022/07/26 10:21:47;;;;;;;4.80;2.17;;;;;;;27.80;42.54;99932.12;2060181;84;28972;-64
2022/07/26 10:24:48;;;;;;;9.33;2.62;;;;;;;27.80;42.71;99933.49;2085511;84;31083;-64
2022/07/26 10:27:56;;;;;;;8.18;2.42;;;;;;;27.86;42.62;99933.55;2085587;84;32724;-63
2022/07/26 10:31:24;;;;;;;6.95;2.65;;;;;;;27.86;42.45;99938.19;2030904;87;30415;-63
2022/07/26 10:34:35;;;;;;;3.60;2.00;;;;;;;27.87;42.16;99938.52;2085578;85;27675;-63
2022/07/26 10:37:36;;;;;;;4.17;2.60;;;;;;;27.91;42.41;99932.94;2030814;86;29460;-64
2022/07/26 10:40:41;;;;;;;6.42;2.95;;;;;;;27.96;42.12;99934.58;2082227;85;30577;-64
2022/07/26 10:44:04;;;;;;;4.72;2.60;;;;;;;27.98;42.13;99932.99;2083094;85;33019;-63
2022/07/26 10:47:11;;;;;;;4.28;2.30;;;;;;;28.08;42.16;99927.97;2049646;86;29989;-64
2022/07/26 10:50:14;;;;;;;4.25;2.40;;;;;;;28.19;41.90;99932.98;2085600;84;27672;-64
2022/07/26 10:53:22;;;;;;;7.60;2.40;;;;;;;28.30;41.55;99933.45;1996522;87;28237;-64
2022/07/26 10:56:23;;;;;;;3.45;2.00;;;;;;;28.34;41.28;99926.50;2085467;85;31994;-64
2022/07/26 10:59:32;;;;;;;5.08;2.60;;;;;;;28.40;41.16;99931.18;2068504;86;33001;-64
2022/07/26 11:02:34;;;;;;;5.62;2.62;;;;;;;28.38;40.80;99920.88;2085047;85;30854;-64
2022/07/26 11:05:36;;;;;;;5.95;2.15;;;;;;;28.46;40.85;99933.14;2083704;85;27685;-65
2022/07/26 11:08:37;;;;;;;7.37;2.10;;;;;;;28.48;40.24;99926.90;2088661;85;28644;-65
2022/07/26 11:11:39;;;;;;;4.62;2.10;;;;;;;28.46;39.82;99936.44;2074253;85;32184;-66
2022/07/26 11:14:41;;;;;;;1.98;1.37;;;;;;;28.48;39.73;99934.30;2085336;85;34200;-67
2022/07/26 11:17:42;;;;;;;3.77;1.98;;;;;;;28.55;39.56;99933.82;2049164;86;29666;-64
2022/07/26 11:20:50;;;;;;;3.58;1.82;;;;;;;28.58;39.34;99938.06;2024940;86;27826;-64
2022/07/26 11:23:51;;;;;;;2.90;1.92;;;;;;;28.62;39.47;99937.98;2067624;85;29520;-64
2022/07/26 11:26:53;;;;;;;3.55;1.72;;;;;;;28.48;38.62;99941.19;2067879;85;32312;-63
2022/07/26 11:29:57;;;;;;;6.05;2.00;;;;;;;28.33;38.73;99939.95;2032457;87;33335;-64
2022/07/26 11:32:58;;;;;;;6.37;2.12;;;;;;;28.19;38.35;99942.63;2076829;85;29073;-66
2022/07/26 11:36:00;;;;;;;4.47;2.10;;;;;;;28.12;38.66;99943.62;2032694;87;27659;-63
2022/07/26 11:39:06;;;;;;;6.67;1.90;;;;;;;28.07;38.70;99948.30;2068021;86;28464;-64
2022/07/26 11:42:10;;;;;;;6.25;2.40;;;;;;;28.07;38.94;99944.71;2032585;87;30756;-65
2022/07/26 11:45:12;;;;;;;6.97;2.30;;;;;;;28.11;39.02;99943.30;2067660;85;33859;-65
2022/07/26 11:48:14;;;;;;;5.87;2.08;;;;;;;28.14;38.37;99940.98;2068001;86;29555;-65
2022/07/26 11:51:19;;;;;;;3.80;1.87;;;;;;;28.18;38.64;99938.67;2032780;87;28106;-64
2022/07/26 11:54:23;;;;;;;4.75;1.92;;;;;;;28.27;38.66;99934.72;2063592;86;28890;-63
2022/07/26 11:57:30;;;;;;;2.70;2.10;;;;;;;28.35;38.39;99929.58;2063953;85;31084;-65
2022/07/26 12:00:32;;;;;;;5.20;2.12;;;;;;;28.43;38.23;99927.19;2067562;85;34170;-63
2022/07/26 12:03:37;;;;;;;6.17;2.05;;;;;;;28.44;38.25;99925.59;2064069;86;29514;-63
2022/07/26 12:06:39;;;;;;;10.00;2.77;;;;;;;28.52;38.11;99923.74;2064027;86;27636;-63
2022/07/26 12:09:48;;;;;;;5.03;2.27;;;;;;;28.56;37.94;99923.13;2064063;85;29808;-64
2022/07/26 12:12:49;;;;;;;5.53;2.50;;;;;;;28.59;38.21;99925.48;2063911;85;32134;-64
2022/07/26 12:15:52;;;;;;;5.78;2.60;;;;;;;28.58;37.93;99929.28;2063734;86;32859;-63
2022/07/26 12:18:53;;;;;;;6.58;2.40;;;;;;;28.48;37.89;99924.66;2063999;85;30147;-64
2022/07/26 12:22:13;;;;;;;3.52;2.08;;;;;;;28.41;38.03;99927.91;2068803;85;27813;-63
2022/07/26 12:25:25;;;;;;;4.45;2.30;;;;;;;28.29;37.91;99925.73;2075729;85;29947;-65
2022/07/26 12:28:41;;;;;;;3.33;2.20;;;;;;;28.21;37.98;99921.75;2073340;85;32105;-65
2022/07/26 12:31:43;;;;;;;4.58;2.58;;;;;;;28.16;38.15;99921.48;2059067;86;33124;-63
2022/07/26 12:35:04;;;;;;;5.70;2.37;;;;;;;28.09;38.01;99915.07;2039873;86;29838;-64
2022/07/26 12:38:05;;;;;;;3.58;2.02;;;;;;;28.10;38.65;99912.67;2059589;86;27616;-63
2022/07/26 12:41:07;;;;;;;3.47;2.55;;;;;;;28.25;38.86;99914.79;2058822;86;29960;-64
2022/07/26 12:44:13;;;;;;;4.67;2.12;;;;;;;28.31;38.58;99912.58;2059459;86;31988;-63
2022/07/26 12:47:11;;;;;;;6.53;2.33;;;;;;;28.34;38.56;99912.19;2057740;86;34351;-65
2022/07/26 12:50:15;;;;;;;6.47;2.70;;;;;;;28.38;38.51;99915.38;2059318;86;30018;-64
2022/07/26 12:53:16;;;;;;;5.12;2.02;;;;;;;28.39;38.31;99915.70;2043388;87;27700;-65
2022/07/26 12:56:20;;;;;;;5.58;2.10;;;;;;;28.40;38.48;99916.56;2095461;84;29139;-64
2022/07/26 12:59:22;;;;;;;3.80;2.33;;;;;;;28.40;38.69;99914.65;2095256;84;31068;-64
2022/07/26 13:02:23;;;;;;;3.65;2.40;;;;;;;28.40;38.57;99906.92;2080578;85;34084;-65
2022/07/26 13:05:25;;;;;;;5.90;2.50;;;;;;;28.40;38.56;99901.41;2080611;85;30049;-64
2022/07/26 13:08:26;;;;;;;3.83;2.90;;;;;;;28.39;38.29;99909.36;2080791;85;27689;-65
2022/07/26 13:11:27;;;;;;;4.72;2.35;;;;;;;28.33;38.20;99906.89;2080601;85;29065;-65
2022/07/26 13:14:30;;;;;;;3.95;2.30;;;;;;;28.26;38.22;99907.36;2080568;85;31035;-64
2022/07/26 13:17:31;;;;;;;6.35;2.52;;;;;;;28.26;38.25;99908.73;2081713;85;33744;-65
2022/07/26 13:20:33;;;;;;;6.78;2.62;;;;;;;28.33;38.70;99911.02;2069839;85;30171;-66
2022/07/26 13:23:35;;;;;;;5.55;2.72;;;;;;;28.44;38.77;99914.58;2064076;85;27737;-64
2022/07/26 13:26:36;;;;;;;3.67;2.52;;;;;;;28.51;38.39;99915.98;2030996;87;28292;-64
2022/07/26 13:29:37;;;;;;;4.15;2.45;;;;;;;28.58;38.44;99912.75;2085071;85;32303;-63
2022/07/26 13:32:39;;;;;;;3.95;2.62;;;;;;;28.68;38.36;99911.00;2085447;85;33356;-64
2022/07/26 13:35:41;;;;;;;3.87;2.60;;;;;;;28.73;38.12;99912.63;2030998;87;30758;-63
2022/07/26 13:38:43;;;;;;;8.05;2.62;;;;;;;28.78;38.31;99917.00;2085806;85;27583;-65
2022/07/26 13:41:44;;;;;;;8.40;3.02;;;;;;;28.77;38.10;99918.59;2030945;87;29061;-64
2022/07/26 13:44:46;;;;;;;4.53;3.17;;;;;;;28.65;37.83;99917.75;2085313;85;32271;-63
2022/07/26 13:47:47;;;;;;;5.90;2.62;;;;;;;28.53;37.76;99915.26;2030774;87;33138;-64
2022/07/26 13:50:49;;;;;;;4.08;2.80;;;;;;;28.42;37.94;99925.48;2085980;85;29694;-64
2022/07/26 13:53:50;;;;;;;6.17;3.00;;;;;;;28.37;38.03;99921.97;2085498;85;27597;-65
2022/07/26 13:56:53;;;;;;;7.40;2.90;;;;;;;28.28;38.02;99925.92;2070739;86;29085;-64
2022/07/26 13:59:54;;;;;;;4.50;2.77;;;;;;;28.18;37.95;99924.39;2070463;86;31685;-64
2022/07/26 14:02:58;;;;;;;5.50;2.60;;;;;;;27.99;38.06;99933.31;2070767;86;33331;-63
2022/07/26 14:05:59;;;;;;;5.87;2.72;;;;;;;27.82;38.17;99932.23;2070727;86;30433;-63
2022/07/26 14:09:03;;;;;;;6.55;2.52;;;;;;;27.73;38.53;99927.90;2070613;86;27684;-63
2022/07/26 14:12:05;;;;;;;5.45;2.27;;;;;;;27.64;38.71;99931.86;2070850;86;28661;-65
2022/07/26 14:15:11;;;;;;;5.37;3.10;;;;;;;27.59;38.71;99925.03;2071038;86;31078;-64
2022/07/26 14:18:12;;;;;;;8.98;2.98;;;;;;;27.58;38.70;99917.83;2070654;86;33746;-62
2022/07/26 14:21:13;;;;;;;4.50;2.70;;;;;;;27.70;38.94;99915.40;2049589;86;29624;-63